sensor_id;sensor_type;location;lat;lon;timestamp;temperature;humidity
55642;DHT22;41509;53.108;6.100;2024-01-06T00:00:11;3.10;99.90
55642;DHT22;41509;53.108;6.100;2024-01-06T00:02:38;3.10;99.90
55642;DHT22;41509;53.108;6.100;2024-01-06T00:05:07;3.00;99.90
55642;DHT22;41509;53.108;6.100;2024-01-06T00:07:33;3.00;99.90
55642;DHT22;41509;53.108;6.100;2024-01-06T00:10:11;3.00;99.90
55642;DHT22;41509;53.108;6.100;2024-01-06T00:12:37;3.00;99.90
55642;DHT22;41509;53.108;6.100;2024-01-06T00:15:03;3.00;99.90
55642;DHT22;41509;53.108;6.100;2024-01-06T00:17:29;3.00;99.90
55642;DHT22;41509;53.108;6.100;2024-01-06T00:19:55;3.00;99.90
55642;DHT22;41509;53.108;6.100;2024-01-06T00:22:21;3.00;99.90
55642;DHT22;41509;53.108;6.100;2024-01-06T00:24:46;2.90;99.90
55642;DHT22;41509;53.108;6.100;2024-01-06T00:27:12;2.90;99.90
55642;DHT22;41509;53.108;6.100;2024-01-06T00:29:39;2.90;99.90
55642;DHT22;41509;53.108;6.100;2024-01-06T00:32:05;2.90;99.90
55642;DHT22;41509;53.108;6.100;2024-01-06T00:34:30;2.80;99.90
55642;DHT22;41509;53.108;6.100;2024-01-06T00:36:59;2.80;99.90
55642;DHT22;41509;53.108;6.100;2024-01-06T00:39:24;2.80;99.90
55642;DHT22;41509;53.108;6.100;2024-01-06T00:41:50;2.80;99.90
55642;DHT22;41509;53.108;6.100;2024-01-06T00:44:16;2.90;99.90
55642;DHT22;41509;53.108;6.100;2024-01-06T00:46:41;2.90;99.90
55642;DHT22;41509;53.108;6.100;2024-01-06T00:49:07;2.80;99.90
55642;DHT22;41509;53.108;6.100;2024-01-06T00:51:33;2.80;99.90
55642;DHT22;41509;53.108;6.100;2024-01-06T00:53:58;2.80;99.90
55642;DHT22;41509;53.108;6.100;2024-01-06T00:56:24;2.80;99.90
55642;DHT22;41509;53.108;6.100;2024-01-06T00:58:49;2.80;99.90
55642;DHT22;41509;53.108;6.100;2024-01-06T01:01:15;2.80;99.90
55642;DHT22;41509;53.108;6.100;2024-01-06T01:03:41;2.80;99.90
55642;DHT22;41509;53.108;6.100;2024-01-06T01:06:06;2.70;99.90
55642;DHT22;41509;53.108;6.100;2024-01-06T01:08:34;2.70;99.90
55642;DHT22;41509;53.108;6.100;2024-01-06T01:11:00;2.70;99.90
55642;DHT22;41509;53.108;6.100;2024-01-06T01:13:26;2.60;99.90
55642;DHT22;41509;53.108;6.100;2024-01-06T01:15:51;2.60;99.90
55642;DHT22;41509;53.108;6.100;2024-01-06T01:18:17;2.60;99.90
55642;DHT22;41509;53.108;6.100;2024-01-06T01:20:42;2.60;99.90
55642;DHT22;41509;53.108;6.100;2024-01-06T01:23:08;2.60;99.90
55642;DHT22;41509;53.108;6.100;2024-01-06T01:25:34;2.60;99.90
55642;DHT22;41509;53.108;6.100;2024-01-06T01:27:59;2.60;99.90
55642;DHT22;41509;53.108;6.100;2024-01-06T01:30:25;2.60;99.90
55642;DHT22;41509;53.108;6.100;2024-01-06T01:32:51;2.60;99.90
55642;DHT22;41509;53.108;6.100;2024-01-06T01:35:18;2.60;99.90
55642;DHT22;41509;53.108;6.100;2024-01-06T01:37:44;2.50;99.90
55642;DHT22;41509;53.108;6.100;2024-01-06T01:40:10;2.50;99.90
55642;DHT22;41509;53.108;6.100;2024-01-06T01:42:38;2.50;99.90
55642;DHT22;41509;53.108;6.100;2024-01-06T01:45:04;2.50;99.90
55642;DHT22;41509;53.108;6.100;2024-01-06T01:47:30;2.50;99.90
55642;DHT22;41509;53.108;6.100;2024-01-06T01:49:56;2.50;99.90
55642;DHT22;41509;53.108;6.100;2024-01-06T01:52:22;2.50;99.90
55642;DHT22;41509;53.108;6.100;2024-01-06T01:54:48;2.40;99.90
55642;DHT22;41509;53.108;6.100;2024-01-06T01:57:15;2.50;99.90
55642;DHT22;41509;53.108;6.100;2024-01-06T01:59:42;2.50;99.90
55642;DHT22;41509;53.108;6.100;2024-01-06T02:02:08;2.40;99.90
55642;DHT22;41509;53.108;6.100;2024-01-06T02:04:34;2.40;99.90
55642;DHT22;41509;53.108;6.100;2024-01-06T02:07:00;2.40;99.90
55642;DHT22;41509;53.108;6.100;2024-01-06T02:09:25;2.40;99.90
55642;DHT22;41509;53.108;6.100;2024-01-06T02:11:56;2.40;99.90
55642;DHT22;41509;53.108;6.100;2024-01-06T02:14:22;2.40;99.90
55642;DHT22;41509;53.108;6.100;2024-01-06T02:16:50;2.40;99.90
55642;DHT22;41509;53.108;6.100;2024-01-06T02:19:16;2.40;99.90
55642;DHT22;41509;53.108;6.100;2024-01-06T02:21:43;2.40;99.90
55642;DHT22;41509;53.108;6.100;2024-01-06T02:24:10;2.30;99.90
55642;DHT22;41509;53.108;6.100;2024-01-06T02:26:35;2.30;99.90
55642;DHT22;41509;53.108;6.100;2024-01-06T02:29:03;2.30;99.90
55642;DHT22;41509;53.108;6.100;2024-01-06T02:31:29;2.30;99.90
55642;DHT22;41509;53.108;6.100;2024-01-06T02:33:57;2.40;99.90
55642;DHT22;41509;53.108;6.100;2024-01-06T02:36:23;2.30;99.90
55642;DHT22;41509;53.108;6.100;2024-01-06T02:38:48;2.40;99.90
55642;DHT22;41509;53.108;6.100;2024-01-06T02:41:14;2.40;99.90
55642;DHT22;41509;53.108;6.100;2024-01-06T02:43:40;2.40;99.90
55642;DHT22;41509;53.108;6.100;2024-01-06T02:46:07;2.40;99.90
55642;DHT22;41509;53.108;6.100;2024-01-06T02:48:32;2.40;99.90
55642;DHT22;41509;53.108;6.100;2024-01-06T02:50:58;2.30;99.90
55642;DHT22;41509;53.108;6.100;2024-01-06T02:53:23;2.40;99.90
55642;DHT22;41509;53.108;6.100;2024-01-06T02:55:49;2.30;99.90
55642;DHT22;41509;53.108;6.100;2024-01-06T02:58:15;2.40;99.90
55642;DHT22;41509;53.108;6.100;2024-01-06T03:00:42;2.40;99.90
55642;DHT22;41509;53.108;6.100;2024-01-06T03:03:08;2.40;99.90
55642;DHT22;41509;53.108;6.100;2024-01-06T03:05:36;2.40;99.90
55642;DHT22;41509;53.108;6.100;2024-01-06T03:08:03;2.40;99.90
55642;DHT22;41509;53.108;6.100;2024-01-06T03:10:29;2.40;99.90
55642;DHT22;41509;53.108;6.100;2024-01-06T03:12:54;2.40;99.90
55642;DHT22;41509;53.108;6.100;2024-01-06T03:15:20;2.40;99.90
55642;DHT22;41509;53.108;6.100;2024-01-06T03:17:45;2.40;99.90
55642;DHT22;41509;53.108;6.100;2024-01-06T03:20:11;2.40;99.90
55642;DHT22;41509;53.108;6.100;2024-01-06T03:22:37;2.40;99.90
55642;DHT22;41509;53.108;6.100;2024-01-06T03:25:04;2.30;99.90
55642;DHT22;41509;53.108;6.100;2024-01-06T03:27:29;2.30;99.90
55642;DHT22;41509;53.108;6.100;2024-01-06T03:29:55;2.30;99.90
55642;DHT22;41509;53.108;6.100;2024-01-06T03:32:21;2.30;99.90
55642;DHT22;41509;53.108;6.100;2024-01-06T03:34:50;2.40;99.90
55642;DHT22;41509;53.108;6.100;2024-01-06T03:37:15;2.30;99.90
55642;DHT22;41509;53.108;6.100;2024-01-06T03:39:41;2.40;99.90
55642;DHT22;41509;53.108;6.100;2024-01-06T03:42:07;2.40;99.90
55642;DHT22;41509;53.108;6.100;2024-01-06T03:44:38;2.40;99.90
55642;DHT22;41509;53.108;6.100;2024-01-06T03:47:06;2.30;99.90
55642;DHT22;41509;53.108;6.100;2024-01-06T03:49:32;2.40;99.90
55642;DHT22;41509;53.108;6.100;2024-01-06T03:51:57;2.40;99.90
55642;DHT22;41509;53.108;6.100;2024-01-06T03:54:23;2.30;99.90
55642;DHT22;41509;53.108;6.100;2024-01-06T03:56:49;2.30;99.90
55642;DHT22;41509;53.108;6.100;2024-01-06T03:59:15;2.40;99.90
55642;DHT22;41509;53.108;6.100;2024-01-06T04:01:40;2.40;99.90
55642;DHT22;41509;53.108;6.100;2024-01-06T04:04:07;2.40;99.90
55642;DHT22;41509;53.108;6.100;2024-01-06T04:06:32;2.40;99.90
55642;DHT22;41509;53.108;6.100;2024-01-06T04:08:58;2.40;99.90
55642;DHT22;41509;53.108;6.100;2024-01-06T04:11:24;2.40;99.90
55642;DHT22;41509;53.108;6.100;2024-01-06T04:13:52;2.40;99.90
55642;DHT22;41509;53.108;6.100;2024-01-06T04:16:17;2.40;99.90
55642;DHT22;41509;53.108;6.100;2024-01-06T04:18:43;2.40;99.90
55642;DHT22;41509;53.108;6.100;2024-01-06T04:21:09;2.40;99.90
55642;DHT22;41509;53.108;6.100;2024-01-06T04:23:34;2.40;99.90
55642;DHT22;41509;53.108;6.100;2024-01-06T04:26:00;2.40;99.90
55642;DHT22;41509;53.108;6.100;2024-01-06T04:28:27;2.40;99.90
55642;DHT22;41509;53.108;6.100;2024-01-06T04:30:53;2.40;99.90
55642;DHT22;41509;53.108;6.100;2024-01-06T04:33:18;2.40;99.90
55642;DHT22;41509;53.108;6.100;2024-01-06T04:35:44;2.40;99.90
55642;DHT22;41509;53.108;6.100;2024-01-06T04:38:10;2.40;99.90
55642;DHT22;41509;53.108;6.100;2024-01-06T04:40:35;2.40;99.90
55642;DHT22;41509;53.108;6.100;2024-01-06T04:43:01;2.40;99.90
55642;DHT22;41509;53.108;6.100;2024-01-06T04:45:28;2.40;99.90
55642;DHT22;41509;53.108;6.100;2024-01-06T04:47:54;2.40;99.90
55642;DHT22;41509;53.108;6.100;2024-01-06T04:50:19;2.40;99.90
55642;DHT22;41509;53.108;6.100;2024-01-06T04:52:45;2.40;99.90
55642;DHT22;41509;53.108;6.100;2024-01-06T04:55:11;2.40;99.90
55642;DHT22;41509;53.108;6.100;2024-01-06T04:57:37;2.40;99.90
55642;DHT22;41509;53.108;6.100;2024-01-06T05:00:03;2.40;99.90
55642;DHT22;41509;53.108;6.100;2024-01-06T05:02:30;2.40;99.90
55642;DHT22;41509;53.108;6.100;2024-01-06T05:04:55;2.40;99.90
55642;DHT22;41509;53.108;6.100;2024-01-06T05:07:23;2.40;99.90
55642;DHT22;41509;53.108;6.100;2024-01-06T05:09:49;2.40;99.90
55642;DHT22;41509;53.108;6.100;2024-01-06T05:12:15;2.50;99.90
55642;DHT22;41509;53.108;6.100;2024-01-06T05:14:40;2.40;99.90
55642;DHT22;41509;53.108;6.100;2024-01-06T05:17:08;2.40;99.90
55642;DHT22;41509;53.108;6.100;2024-01-06T05:19:34;2.40;99.90
55642;DHT22;41509;53.108;6.100;2024-01-06T05:22:00;2.40;99.90
55642;DHT22;41509;53.108;6.100;2024-01-06T05:24:26;2.40;99.90
55642;DHT22;41509;53.108;6.100;2024-01-06T05:26:51;2.40;99.90
55642;DHT22;41509;53.108;6.100;2024-01-06T05:29:17;2.40;99.90
55642;DHT22;41509;53.108;6.100;2024-01-06T05:31:43;2.40;99.90
55642;DHT22;41509;53.108;6.100;2024-01-06T05:34:08;2.40;99.90
55642;DHT22;41509;53.108;6.100;2024-01-06T05:36:34;2.40;99.90
55642;DHT22;41509;53.108;6.100;2024-01-06T05:39:00;2.40;99.90
55642;DHT22;41509;53.108;6.100;2024-01-06T05:41:28;2.50;99.90
55642;DHT22;41509;53.108;6.100;2024-01-06T05:43:54;2.40;99.90
55642;DHT22;41509;53.108;6.100;2024-01-06T05:46:23;2.40;99.90
55642;DHT22;41509;53.108;6.100;2024-01-06T05:48:52;2.40;99.90
55642;DHT22;41509;53.108;6.100;2024-01-06T05:51:17;2.50;99.90
55642;DHT22;41509;53.108;6.100;2024-01-06T05:53:43;2.50;99.90
55642;DHT22;41509;53.108;6.100;2024-01-06T05:56:08;2.50;99.90
55642;DHT22;41509;53.108;6.100;2024-01-06T05:58:35;2.50;99.90
55642;DHT22;41509;53.108;6.100;2024-01-06T06:01:05;2.50;99.90
55642;DHT22;41509;53.108;6.100;2024-01-06T06:03:31;2.50;99.90
55642;DHT22;41509;53.108;6.100;2024-01-06T06:05:57;2.50;99.90
55642;DHT22;41509;53.108;6.100;2024-01-06T06:08:22;2.50;99.90
55642;DHT22;41509;53.108;6.100;2024-01-06T06:10:48;2.50;99.90
55642;DHT22;41509;53.108;6.100;2024-01-06T06:13:27;2.50;99.90
55642;DHT22;41509;53.108;6.100;2024-01-06T06:15:52;2.50;99.90
55642;DHT22;41509;53.108;6.100;2024-01-06T06:18:18;2.50;99.90
55642;DHT22;41509;53.108;6.100;2024-01-06T06:20:46;2.50;99.90
55642;DHT22;41509;53.108;6.100;2024-01-06T06:23:14;2.50;99.90
55642;DHT22;41509;53.108;6.100;2024-01-06T06:25:40;2.50;99.90
55642;DHT22;41509;53.108;6.100;2024-01-06T06:28:06;2.60;99.90
55642;DHT22;41509;53.108;6.100;2024-01-06T06:30:32;2.50;99.90
55642;DHT22;41509;53.108;6.100;2024-01-06T06:32:58;2.50;99.90
55642;DHT22;41509;53.108;6.100;2024-01-06T06:35:24;2.50;99.90
55642;DHT22;41509;53.108;6.100;2024-01-06T06:37:50;2.50;99.90
55642;DHT22;41509;53.108;6.100;2024-01-06T06:40:16;2.50;99.90
55642;DHT22;41509;53.108;6.100;2024-01-06T06:42:41;2.50;99.90
55642;DHT22;41509;53.108;6.100;2024-01-06T06:45:07;2.50;99.90
55642;DHT22;41509;53.108;6.100;2024-01-06T06:47:33;2.50;99.90
55642;DHT22;41509;53.108;6.100;2024-01-06T06:49:59;2.60;99.90
55642;DHT22;41509;53.108;6.100;2024-01-06T06:52:28;2.60;99.90
55642;DHT22;41509;53.108;6.100;2024-01-06T06:54:53;2.60;99.90
55642;DHT22;41509;53.108;6.100;2024-01-06T06:57:22;2.60;99.90
55642;DHT22;41509;53.108;6.100;2024-01-06T06:59:53;2.60;99.90
55642;DHT22;41509;53.108;6.100;2024-01-06T07:02:22;2.60;99.90
55642;DHT22;41509;53.108;6.100;2024-01-06T07:04:48;2.50;99.90
55642;DHT22;41509;53.108;6.100;2024-01-06T07:07:17;2.60;99.90
55642;DHT22;41509;53.108;6.100;2024-01-06T07:09:42;2.50;99.90
55642;DHT22;41509;53.108;6.100;2024-01-06T07:12:11;2.60;99.90
55642;DHT22;41509;53.108;6.100;2024-01-06T07:14:36;2.50;99.90
55642;DHT22;41509;53.108;6.100;2024-01-06T07:17:05;2.50;99.90
55642;DHT22;41509;53.108;6.100;2024-01-06T07:19:32;2.50;99.90
55642;DHT22;41509;53.108;6.100;2024-01-06T07:22:00;2.60;99.90
55642;DHT22;41509;53.108;6.100;2024-01-06T07:24:26;2.60;99.90
55642;DHT22;41509;53.108;6.100;2024-01-06T07:26:55;2.60;99.90
55642;DHT22;41509;53.108;6.100;2024-01-06T07:29:24;2.60;99.90
55642;DHT22;41509;53.108;6.100;2024-01-06T07:31:49;2.60;99.90
55642;DHT22;41509;53.108;6.100;2024-01-06T07:34:15;2.60;99.90
55642;DHT22;41509;53.108;6.100;2024-01-06T07:36:41;2.60;99.90
55642;DHT22;41509;53.108;6.100;2024-01-06T07:39:07;2.60;99.90
55642;DHT22;41509;53.108;6.100;2024-01-06T07:41:35;2.60;99.90
55642;DHT22;41509;53.108;6.100;2024-01-06T07:44:01;2.60;99.90
55642;DHT22;41509;53.108;6.100;2024-01-06T07:46:28;2.60;99.90
55642;DHT22;41509;53.108;6.100;2024-01-06T07:48:54;2.60;99.90
55642;DHT22;41509;53.108;6.100;2024-01-06T07:51:20;2.60;99.90
55642;DHT22;41509;53.108;6.100;2024-01-06T07:53:45;2.60;99.90
55642;DHT22;41509;53.108;6.100;2024-01-06T07:56:11;2.60;99.90
55642;DHT22;41509;53.108;6.100;2024-01-06T07:58:37;2.60;99.90
55642;DHT22;41509;53.108;6.100;2024-01-06T08:01:02;2.60;99.90
55642;DHT22;41509;53.108;6.100;2024-01-06T08:03:28;2.60;99.90
55642;DHT22;41509;53.108;6.100;2024-01-06T08:05:54;2.70;99.90
55642;DHT22;41509;53.108;6.100;2024-01-06T08:08:19;2.70;99.90
55642;DHT22;41509;53.108;6.100;2024-01-06T08:10:46;2.70;99.90
55642;DHT22;41509;53.108;6.100;2024-01-06T08:13:12;2.70;99.90
55642;DHT22;41509;53.108;6.100;2024-01-06T08:15:38;2.70;99.90
55642;DHT22;41509;53.108;6.100;2024-01-06T08:18:09;2.70;99.90
55642;DHT22;41509;53.108;6.100;2024-01-06T08:20:34;2.70;99.90
55642;DHT22;41509;53.108;6.100;2024-01-06T08:23:00;2.70;99.90
55642;DHT22;41509;53.108;6.100;2024-01-06T08:25:25;2.70;99.90
55642;DHT22;41509;53.108;6.100;2024-01-06T08:27:51;2.80;99.90
55642;DHT22;41509;53.108;6.100;2024-01-06T08:30:17;2.70;99.90
55642;DHT22;41509;53.108;6.100;2024-01-06T08:32:42;2.70;99.90
55642;DHT22;41509;53.108;6.100;2024-01-06T08:35:09;2.80;99.90
55642;DHT22;41509;53.108;6.100;2024-01-06T08:37:35;2.80;99.90
55642;DHT22;41509;53.108;6.100;2024-01-06T08:40:00;2.80;99.90
55642;DHT22;41509;53.108;6.100;2024-01-06T08:42:26;2.80;99.90
55642;DHT22;41509;53.108;6.100;2024-01-06T08:44:52;2.80;99.90
55642;DHT22;41509;53.108;6.100;2024-01-06T08:47:18;2.80;99.90
55642;DHT22;41509;53.108;6.100;2024-01-06T08:49:44;2.80;99.90
55642;DHT22;41509;53.108;6.100;2024-01-06T08:52:09;2.80;99.90
55642;DHT22;41509;53.108;6.100;2024-01-06T08:54:35;2.80;99.90
55642;DHT22;41509;53.108;6.100;2024-01-06T08:57:00;2.80;99.90
55642;DHT22;41509;53.108;6.100;2024-01-06T08:59:26;2.90;99.90
55642;DHT22;41509;53.108;6.100;2024-01-06T09:01:52;2.90;99.90
55642;DHT22;41509;53.108;6.100;2024-01-06T09:04:20;2.80;99.90
55642;DHT22;41509;53.108;6.100;2024-01-06T09:06:49;2.90;99.90
55642;DHT22;41509;53.108;6.100;2024-01-06T09:09:16;2.90;99.90
55642;DHT22;41509;53.108;6.100;2024-01-06T09:11:41;2.90;99.90
55642;DHT22;41509;53.108;6.100;2024-01-06T09:14:12;2.80;99.90
55642;DHT22;41509;53.108;6.100;2024-01-06T09:16:37;2.90;99.90
55642;DHT22;41509;53.108;6.100;2024-01-06T09:19:05;2.90;99.90
55642;DHT22;41509;53.108;6.100;2024-01-06T09:21:31;2.90;99.90
55642;DHT22;41509;53.108;6.100;2024-01-06T09:23:57;2.80;99.90
55642;DHT22;41509;53.108;6.100;2024-01-06T09:26:22;2.90;99.90
55642;DHT22;41509;53.108;6.100;2024-01-06T09:28:48;2.90;99.90
55642;DHT22;41509;53.108;6.100;2024-01-06T09:31:14;2.90;99.90
55642;DHT22;41509;53.108;6.100;2024-01-06T09:33:39;2.90;99.90
55642;DHT22;41509;53.108;6.100;2024-01-06T09:36:05;2.90;99.90
55642;DHT22;41509;53.108;6.100;2024-01-06T09:38:31;2.80;99.90
55642;DHT22;41509;53.108;6.100;2024-01-06T09:40:58;2.90;99.90
55642;DHT22;41509;53.108;6.100;2024-01-06T09:43:23;2.90;99.90
55642;DHT22;41509;53.108;6.100;2024-01-06T09:45:58;2.90;99.90
55642;DHT22;41509;53.108;6.100;2024-01-06T09:48:29;2.90;99.90
55642;DHT22;41509;53.108;6.100;2024-01-06T09:51:02;2.90;99.90
55642;DHT22;41509;53.108;6.100;2024-01-06T09:53:34;3.00;99.90
55642;DHT22;41509;53.108;6.100;2024-01-06T09:56:02;3.00;99.90
55642;DHT22;41509;53.108;6.100;2024-01-06T09:58:29;3.00;99.90
55642;DHT22;41509;53.108;6.100;2024-01-06T10:00:59;3.00;99.90
55642;DHT22;41509;53.108;6.100;2024-01-06T10:03:25;3.00;99.90
55642;DHT22;41509;53.108;6.100;2024-01-06T10:05:52;3.00;99.90
55642;DHT22;41509;53.108;6.100;2024-01-06T10:08:18;3.00;99.90
55642;DHT22;41509;53.108;6.100;2024-01-06T10:10:49;3.00;99.90
55642;DHT22;41509;53.108;6.100;2024-01-06T10:13:17;3.00;99.90
55642;DHT22;41509;53.108;6.100;2024-01-06T10:15:46;3.00;99.90
55642;DHT22;41509;53.108;6.100;2024-01-06T10:18:15;3.10;99.90
55642;DHT22;41509;53.108;6.100;2024-01-06T10:20:40;3.10;99.90
55642;DHT22;41509;53.108;6.100;2024-01-06T10:23:06;3.10;99.90
55642;DHT22;41509;53.108;6.100;2024-01-06T10:25:35;3.10;99.90
55642;DHT22;41509;53.108;6.100;2024-01-06T10:28:01;3.00;99.90
55642;DHT22;41509;53.108;6.100;2024-01-06T10:30:29;3.10;99.90
55642;DHT22;41509;53.108;6.100;2024-01-06T10:32:57;3.00;99.90
55642;DHT22;41509;53.108;6.100;2024-01-06T10:35:25;3.10;99.90
55642;DHT22;41509;53.108;6.100;2024-01-06T10:37:51;3.00;99.90
55642;DHT22;41509;53.108;6.100;2024-01-06T10:40:17;3.00;99.90
55642;DHT22;41509;53.108;6.100;2024-01-06T10:42:44;3.00;99.90
55642;DHT22;41509;53.108;6.100;2024-01-06T10:45:10;3.00;99.90
55642;DHT22;41509;53.108;6.100;2024-01-06T10:47:37;3.00;99.90
55642;DHT22;41509;53.108;6.100;2024-01-06T10:50:03;3.00;99.90
55642;DHT22;41509;53.108;6.100;2024-01-06T10:52:32;3.00;99.90
55642;DHT22;41509;53.108;6.100;2024-01-06T10:54:58;3.00;99.90
55642;DHT22;41509;53.108;6.100;2024-01-06T10:57:24;3.00;99.90
55642;DHT22;41509;53.108;6.100;2024-01-06T10:59:51;3.00;99.90
55642;DHT22;41509;53.108;6.100;2024-01-06T11:02:17;3.10;99.90
55642;DHT22;41509;53.108;6.100;2024-01-06T11:04:47;3.10;99.90
55642;DHT22;41509;53.108;6.100;2024-01-06T11:07:21;3.10;99.90
55642;DHT22;41509;53.108;6.100;2024-01-06T11:09:56;3.10;99.90
55642;DHT22;41509;53.108;6.100;2024-01-06T11:12:22;3.10;99.90
55642;DHT22;41509;53.108;6.100;2024-01-06T11:14:48;3.10;99.90
55642;DHT22;41509;53.108;6.100;2024-01-06T11:17:50;3.10;99.90
55642;DHT22;41509;53.108;6.100;2024-01-06T11:20:19;3.10;99.90
55642;DHT22;41509;53.108;6.100;2024-01-06T11:22:46;3.10;99.90
55642;DHT22;41509;53.108;6.100;2024-01-06T11:25:15;3.10;99.90
55642;DHT22;41509;53.108;6.100;2024-01-06T11:27:43;3.10;99.90
55642;DHT22;41509;53.108;6.100;2024-01-06T11:30:20;3.10;99.90
55642;DHT22;41509;53.108;6.100;2024-01-06T11:32:48;3.20;99.90
55642;DHT22;41509;53.108;6.100;2024-01-06T11:35:16;3.20;99.90
55642;DHT22;41509;53.108;6.100;2024-01-06T11:40:10;3.20;99.90
55642;DHT22;41509;53.108;6.100;2024-01-06T11:42:41;3.30;99.90
55642;DHT22;41509;53.108;6.100;2024-01-06T11:45:07;3.20;99.90
55642;DHT22;41509;53.108;6.100;2024-01-06T11:47:34;3.20;99.90
55642;DHT22;41509;53.108;6.100;2024-01-06T11:50:01;3.20;99.90
55642;DHT22;41509;53.108;6.100;2024-01-06T11:52:31;3.30;99.90
55642;DHT22;41509;53.108;6.100;2024-01-06T11:54:58;3.30;99.90
55642;DHT22;41509;53.108;6.100;2024-01-06T11:57:25;3.30;99.90
55642;DHT22;41509;53.108;6.100;2024-01-06T11:59:52;3.30;99.90
55642;DHT22;41509;53.108;6.100;2024-01-06T12:02:18;3.30;99.90
55642;DHT22;41509;53.108;6.100;2024-01-06T12:04:51;3.30;99.90
55642;DHT22;41509;53.108;6.100;2024-01-06T12:07:18;3.30;99.90
55642;DHT22;41509;53.108;6.100;2024-01-06T12:09:46;3.30;99.90
55642;DHT22;41509;53.108;6.100;2024-01-06T12:12:15;3.30;99.90
55642;DHT22;41509;53.108;6.100;2024-01-06T12:14:41;3.20;99.90
55642;DHT22;41509;53.108;6.100;2024-01-06T12:17:14;3.20;99.90
55642;DHT22;41509;53.108;6.100;2024-01-06T12:19:40;3.20;99.90
55642;DHT22;41509;53.108;6.100;2024-01-06T12:22:12;3.20;99.90
55642;DHT22;41509;53.108;6.100;2024-01-06T12:24:41;3.30;99.90
55642;DHT22;41509;53.108;6.100;2024-01-06T12:27:11;3.30;99.90
55642;DHT22;41509;53.108;6.100;2024-01-06T12:29:43;3.30;99.90
55642;DHT22;41509;53.108;6.100;2024-01-06T12:32:09;3.30;99.90
55642;DHT22;41509;53.108;6.100;2024-01-06T12:34:35;3.40;99.90
55642;DHT22;41509;53.108;6.100;2024-01-06T12:37:01;3.40;99.90
55642;DHT22;41509;53.108;6.100;2024-01-06T12:39:33;3.50;99.90
55642;DHT22;41509;53.108;6.100;2024-01-06T12:41:58;3.50;99.90
55642;DHT22;41509;53.108;6.100;2024-01-06T12:44:27;3.40;99.90
55642;DHT22;41509;53.108;6.100;2024-01-06T12:46:53;3.40;99.90
55642;DHT22;41509;53.108;6.100;2024-01-06T12:49:19;3.40;99.90
55642;DHT22;41509;53.108;6.100;2024-01-06T12:51:45;3.30;99.90
55642;DHT22;41509;53.108;6.100;2024-01-06T12:54:10;3.30;99.90
55642;DHT22;41509;53.108;6.100;2024-01-06T12:56:36;3.30;99.90
55642;DHT22;41509;53.108;6.100;2024-01-06T12:59:02;3.30;99.90
55642;DHT22;41509;53.108;6.100;2024-01-06T13:01:27;3.20;99.90
55642;DHT22;41509;53.108;6.100;2024-01-06T13:03:53;3.20;99.90
55642;DHT22;41509;53.108;6.100;2024-01-06T13:06:20;3.20;99.90
55642;DHT22;41509;53.108;6.100;2024-01-06T13:08:46;3.20;99.90
55642;DHT22;41509;53.108;6.100;2024-01-06T13:11:12;3.20;99.90
55642;DHT22;41509;53.108;6.100;2024-01-06T13:13:38;3.10;99.90
55642;DHT22;41509;53.108;6.100;2024-01-06T13:16:04;3.10;99.90
55642;DHT22;41509;53.108;6.100;2024-01-06T13:18:30;3.10;99.90
55642;DHT22;41509;53.108;6.100;2024-01-06T13:20:56;3.10;99.90
55642;DHT22;41509;53.108;6.100;2024-01-06T13:23:25;3.00;99.90
55642;DHT22;41509;53.108;6.100;2024-01-06T13:25:50;3.00;99.90
55642;DHT22;41509;53.108;6.100;2024-01-06T13:28:16;3.00;99.90
55642;DHT22;41509;53.108;6.100;2024-01-06T13:30:42;3.00;99.90
55642;DHT22;41509;53.108;6.100;2024-01-06T13:33:08;3.00;99.90
55642;DHT22;41509;53.108;6.100;2024-01-06T13:35:35;3.00;99.90
55642;DHT22;41509;53.108;6.100;2024-01-06T13:38:02;3.00;99.90
55642;DHT22;41509;53.108;6.100;2024-01-06T13:40:30;3.00;99.90
55642;DHT22;41509;53.108;6.100;2024-01-06T13:42:56;3.00;99.90
55642;DHT22;41509;53.108;6.100;2024-01-06T13:45:22;3.00;99.90
55642;DHT22;41509;53.108;6.100;2024-01-06T13:47:48;3.00;99.90
55642;DHT22;41509;53.108;6.100;2024-01-06T13:50:16;3.00;99.90
55642;DHT22;41509;53.108;6.100;2024-01-06T13:52:42;2.90;99.90
55642;DHT22;41509;53.108;6.100;2024-01-06T13:55:08;2.90;99.90
55642;DHT22;41509;53.108;6.100;2024-01-06T13:57:34;2.90;99.90
55642;DHT22;41509;53.108;6.100;2024-01-06T14:00:00;2.90;99.90
55642;DHT22;41509;53.108;6.100;2024-01-06T14:02:26;2.90;99.90
55642;DHT22;41509;53.108;6.100;2024-01-06T14:04:52;2.90;99.90
55642;DHT22;41509;53.108;6.100;2024-01-06T14:07:18;2.90;99.90
55642;DHT22;41509;53.108;6.100;2024-01-06T14:09:45;2.90;99.90
55642;DHT22;41509;53.108;6.100;2024-01-06T14:12:11;2.90;99.90
55642;DHT22;41509;53.108;6.100;2024-01-06T14:14:37;2.90;99.90
55642;DHT22;41509;53.108;6.100;2024-01-06T14:17:02;2.90;99.90
55642;DHT22;41509;53.108;6.100;2024-01-06T14:19:36;2.90;99.90
55642;DHT22;41509;53.108;6.100;2024-01-06T14:22:01;2.90;99.90
55642;DHT22;41509;53.108;6.100;2024-01-06T14:24:30;3.00;99.90
55642;DHT22;41509;53.108;6.100;2024-01-06T14:26:56;2.90;99.90
55642;DHT22;41509;53.108;6.100;2024-01-06T14:29:22;2.90;99.90
55642;DHT22;41509;53.108;6.100;2024-01-06T14:31:48;2.90;99.90
55642;DHT22;41509;53.108;6.100;2024-01-06T14:34:14;2.80;99.90
55642;DHT22;41509;53.108;6.100;2024-01-06T14:36:40;2.80;99.90
55642;DHT22;41509;53.108;6.100;2024-01-06T14:39:14;2.80;99.90
55642;DHT22;41509;53.108;6.100;2024-01-06T14:41:40;2.70;99.90
55642;DHT22;41509;53.108;6.100;2024-01-06T14:44:06;2.60;99.90
55642;DHT22;41509;53.108;6.100;2024-01-06T14:46:32;2.60;99.90
55642;DHT22;41509;53.108;6.100;2024-01-06T14:48:59;2.60;99.90
55642;DHT22;41509;53.108;6.100;2024-01-06T14:51:25;2.60;99.90
55642;DHT22;41509;53.108;6.100;2024-01-06T14:53:50;2.60;99.90
55642;DHT22;41509;53.108;6.100;2024-01-06T14:56:16;2.50;99.90
55642;DHT22;41509;53.108;6.100;2024-01-06T14:58:41;2.50;99.90
55642;DHT22;41509;53.108;6.100;2024-01-06T15:01:07;2.50;99.90
55642;DHT22;41509;53.108;6.100;2024-01-06T15:03:33;2.50;99.90
55642;DHT22;41509;53.108;6.100;2024-01-06T15:05:58;2.50;99.90
55642;DHT22;41509;53.108;6.100;2024-01-06T15:08:24;2.50;99.90
55642;DHT22;41509;53.108;6.100;2024-01-06T15:10:50;2.50;99.90
55642;DHT22;41509;53.108;6.100;2024-01-06T15:13:16;2.40;99.90
55642;DHT22;41509;53.108;6.100;2024-01-06T15:15:41;2.40;99.90
55642;DHT22;41509;53.108;6.100;2024-01-06T15:18:07;2.40;99.90
55642;DHT22;41509;53.108;6.100;2024-01-06T15:20:34;2.40;99.90
55642;DHT22;41509;53.108;6.100;2024-01-06T15:23:02;2.40;99.90
55642;DHT22;41509;53.108;6.100;2024-01-06T15:25:28;2.30;99.90
55642;DHT22;41509;53.108;6.100;2024-01-06T15:27:53;2.40;99.90
55642;DHT22;41509;53.108;6.100;2024-01-06T15:30:19;2.30;99.90
55642;DHT22;41509;53.108;6.100;2024-01-06T15:32:46;2.30;99.90
55642;DHT22;41509;53.108;6.100;2024-01-06T15:35:12;2.30;99.90
55642;DHT22;41509;53.108;6.100;2024-01-06T15:37:37;2.30;99.90
55642;DHT22;41509;53.108;6.100;2024-01-06T15:40:03;2.30;99.90
55642;DHT22;41509;53.108;6.100;2024-01-06T15:42:31;2.20;99.90